sensor_id;sensor_type;location;lat;lon;timestamp;temperature;humidity
43651;DHT22;29247;50.944;5.382;2022-11-11T00:01:07;11.60;80.60
43651;DHT22;29247;50.944;5.382;2022-11-11T00:03:35;11.60;80.80
43651;DHT22;29247;50.944;5.382;2022-11-11T00:06:08;11.60;80.80
43651;DHT22;29247;50.944;5.382;2022-11-11T00:08:37;11.50;80.70
43651;DHT22;29247;50.944;5.382;2022-11-11T00:11:12;11.50;80.80
43651;DHT22;29247;50.944;5.382;2022-11-11T00:13:39;11.50;81.10
43651;DHT22;29247;50.944;5.382;2022-11-11T00:16:16;11.50;81.30
43651;DHT22;29247;50.944;5.382;2022-11-11T00:18:43;11.50;81.40
43651;DHT22;29247;50.944;5.382;2022-11-11T00:21:27;11.50;81.50
43651;DHT22;29247;50.944;5.382;2022-11-11T00:24:27;11.50;81.50
43651;DHT22;29247;50.944;5.382;2022-11-11T00:27:12;11.50;81.70
43651;DHT22;29247;50.944;5.382;2022-11-11T00:29:38;11.50;81.70
43651;DHT22;29247;50.944;5.382;2022-11-11T00:32:06;11.50;81.80
43651;DHT22;29247;50.944;5.382;2022-11-11T00:34:50;11.40;81.80
43651;DHT22;29247;50.944;5.382;2022-11-11T00:37:37;11.40;81.80
43651;DHT22;29247;50.944;5.382;2022-11-11T00:40:07;11.40;81.90
43651;DHT22;29247;50.944;5.382;2022-11-11T00:42:35;11.40;81.90
43651;DHT22;29247;50.944;5.382;2022-11-11T00:45:02;11.40;81.70
43651;DHT22;29247;50.944;5.382;2022-11-11T00:47:32;11.40;81.40
43651;DHT22;29247;50.944;5.382;2022-11-11T00:50:27;11.30;81.40
43651;DHT22;29247;50.944;5.382;2022-11-11T00:53:23;11.30;81.50
43651;DHT22;29247;50.944;5.382;2022-11-11T00:55:48;11.30;81.60
43651;DHT22;29247;50.944;5.382;2022-11-11T00:58:18;11.30;81.30
43651;DHT22;29247;50.944;5.382;2022-11-11T01:00:44;11.20;81.40
43651;DHT22;29247;50.944;5.382;2022-11-11T01:03:14;11.20;81.70
43651;DHT22;29247;50.944;5.382;2022-11-11T01:05:41;11.20;81.90
43651;DHT22;29247;50.944;5.382;2022-11-11T01:08:07;11.20;82.00
43651;DHT22;29247;50.944;5.382;2022-11-11T01:10:33;11.20;82.10
43651;DHT22;29247;50.944;5.382;2022-11-11T01:15:52;11.20;82.30
43651;DHT22;29247;50.944;5.382;2022-11-11T01:18:23;11.20;82.20
43651;DHT22;29247;50.944;5.382;2022-11-11T01:21:00;11.20;82.20
43651;DHT22;29247;50.944;5.382;2022-11-11T01:23:29;11.20;82.30
43651;DHT22;29247;50.944;5.382;2022-11-11T01:26:11;11.20;82.20
43651;DHT22;29247;50.944;5.382;2022-11-11T01:28:38;11.20;82.20
43651;DHT22;29247;50.944;5.382;2022-11-11T01:31:10;11.20;82.30
43651;DHT22;29247;50.944;5.382;2022-11-11T01:33:36;11.20;82.50
43651;DHT22;29247;50.944;5.382;2022-11-11T01:36:16;11.20;82.50
43651;DHT22;29247;50.944;5.382;2022-11-11T01:38:51;11.20;82.50
43651;DHT22;29247;50.944;5.382;2022-11-11T01:41:20;11.20;82.60
43651;DHT22;29247;50.944;5.382;2022-11-11T01:52:29;11.10;82.70
43651;DHT22;29247;50.944;5.382;2022-11-11T02:00:18;11.10;82.80
43651;DHT22;29247;50.944;5.382;2022-11-11T02:03:00;11.10;82.80
43651;DHT22;29247;50.944;5.382;2022-11-11T02:05:28;11.10;82.80
43651;DHT22;29247;50.944;5.382;2022-11-11T02:08:13;11.10;82.70
43651;DHT22;29247;50.944;5.382;2022-11-11T02:10:46;11.10;82.70
43651;DHT22;29247;50.944;5.382;2022-11-11T02:13:14;11.10;82.70
43651;DHT22;29247;50.944;5.382;2022-11-11T02:15:59;11.10;82.70
43651;DHT22;29247;50.944;5.382;2022-11-11T02:18:27;11.10;82.60
43651;DHT22;29247;50.944;5.382;2022-11-11T02:20:57;11.00;82.60
43651;DHT22;29247;50.944;5.382;2022-11-11T02:26:19;11.00;82.60
43651;DHT22;29247;50.944;5.382;2022-11-11T02:28:50;11.00;82.20
43651;DHT22;29247;50.944;5.382;2022-11-11T02:31:17;10.90;82.10
43651;DHT22;29247;50.944;5.382;2022-11-11T02:33:46;10.90;82.30
43651;DHT22;29247;50.944;5.382;2022-11-11T02:36:17;10.90;82.30
43651;DHT22;29247;50.944;5.382;2022-11-11T02:38:43;10.80;82.30
43651;DHT22;29247;50.944;5.382;2022-11-11T02:41:11;10.80;82.40
43651;DHT22;29247;50.944;5.382;2022-11-11T02:43:55;10.80;82.50
43651;DHT22;29247;50.944;5.382;2022-11-11T02:46:20;10.80;82.40
43651;DHT22;29247;50.944;5.382;2022-11-11T02:48:46;10.80;82.50
43651;DHT22;29247;50.944;5.382;2022-11-11T02:51:15;10.80;82.30
43651;DHT22;29247;50.944;5.382;2022-11-11T02:53:41;10.70;82.10
43651;DHT22;29247;50.944;5.382;2022-11-11T02:56:07;10.70;82.10
43651;DHT22;29247;50.944;5.382;2022-11-11T02:58:33;10.70;82.10
43651;DHT22;29247;50.944;5.382;2022-11-11T03:01:01;10.60;81.90
43651;DHT22;29247;50.944;5.382;2022-11-11T03:03:27;10.60;81.90
43651;DHT22;29247;50.944;5.382;2022-11-11T03:05:52;10.50;81.90
43651;DHT22;29247;50.944;5.382;2022-11-11T03:08:21;10.50;82.00
43651;DHT22;29247;50.944;5.382;2022-11-11T03:10:49;10.50;82.20
43651;DHT22;29247;50.944;5.382;2022-11-11T03:13:15;10.50;82.40
43651;DHT22;29247;50.944;5.382;2022-11-11T03:15:41;10.50;82.50
43651;DHT22;29247;50.944;5.382;2022-11-11T03:18:07;10.50;82.40
43651;DHT22;29247;50.944;5.382;2022-11-11T03:20:35;10.40;82.50
43651;DHT22;29247;50.944;5.382;2022-11-11T03:23:19;10.40;82.50
43651;DHT22;29247;50.944;5.382;2022-11-11T03:25:52;10.40;82.30
43651;DHT22;29247;50.944;5.382;2022-11-11T03:28:19;10.40;82.40
43651;DHT22;29247;50.944;5.382;2022-11-11T03:30:49;10.40;82.50
43651;DHT22;29247;50.944;5.382;2022-11-11T03:33:17;10.40;82.60
43651;DHT22;29247;50.944;5.382;2022-11-11T03:35:43;10.40;82.60
43651;DHT22;29247;50.944;5.382;2022-11-11T03:38:11;10.40;82.60
43651;DHT22;29247;50.944;5.382;2022-11-11T03:40:44;10.30;82.40
43651;DHT22;29247;50.944;5.382;2022-11-11T03:43:17;10.30;82.30
43651;DHT22;29247;50.944;5.382;2022-11-11T03:45:44;10.30;82.20
43651;DHT22;29247;50.944;5.382;2022-11-11T03:48:14;10.20;82.20
43651;DHT22;29247;50.944;5.382;2022-11-11T03:50:42;10.20;82.20
43651;DHT22;29247;50.944;5.382;2022-11-11T03:53:10;10.20;82.10
43651;DHT22;29247;50.944;5.382;2022-11-11T03:55:36;10.10;82.10
43651;DHT22;29247;50.944;5.382;2022-11-11T03:58:04;10.10;82.30
43651;DHT22;29247;50.944;5.382;2022-11-11T04:00:33;10.10;82.60
43651;DHT22;29247;50.944;5.382;2022-11-11T04:03:13;10.10;82.70
43651;DHT22;29247;50.944;5.382;2022-11-11T04:06:03;10.00;82.50
43651;DHT22;29247;50.944;5.382;2022-11-11T04:08:49;10.00;82.30
43651;DHT22;29247;50.944;5.382;2022-11-11T04:11:37;10.00;82.40
43651;DHT22;29247;50.944;5.382;2022-11-11T04:14:07;10.00;82.50
43651;DHT22;29247;50.944;5.382;2022-11-11T04:16:51;10.00;82.70
43651;DHT22;29247;50.944;5.382;2022-11-11T04:19:19;10.00;82.90
43651;DHT22;29247;50.944;5.382;2022-11-11T04:22:04;10.00;83.00
43651;DHT22;29247;50.944;5.382;2022-11-11T04:24:32;10.00;82.90
43651;DHT22;29247;50.944;5.382;2022-11-11T04:27:18;10.00;82.90
43651;DHT22;29247;50.944;5.382;2022-11-11T04:29:48;9.90;82.70
43651;DHT22;29247;50.944;5.382;2022-11-11T04:32:19;9.90;82.60
43651;DHT22;29247;50.944;5.382;2022-11-11T04:45:09;9.70;82.50
43651;DHT22;29247;50.944;5.382;2022-11-11T04:48:00;9.70;82.60
43651;DHT22;29247;50.944;5.382;2022-11-11T04:50:46;9.70;83.00
43651;DHT22;29247;50.944;5.382;2022-11-11T04:53:16;9.70;83.40
43651;DHT22;29247;50.944;5.382;2022-11-11T04:55:43;9.70;83.40
43651;DHT22;29247;50.944;5.382;2022-11-11T04:58:33;9.70;83.50
43651;DHT22;29247;50.944;5.382;2022-11-11T05:00:59;9.70;83.30
43651;DHT22;29247;50.944;5.382;2022-11-11T05:03:27;9.70;83.10
43651;DHT22;29247;50.944;5.382;2022-11-11T05:05:57;9.60;83.00
43651;DHT22;29247;50.944;5.382;2022-11-11T05:08:45;9.70;83.20
43651;DHT22;29247;50.944;5.382;2022-11-11T05:11:33;9.60;83.30
43651;DHT22;29247;50.944;5.382;2022-11-11T05:14:04;9.70;83.50
43651;DHT22;29247;50.944;5.382;2022-11-11T05:16:56;9.60;83.40
43651;DHT22;29247;50.944;5.382;2022-11-11T05:19:43;9.60;83.50
43651;DHT22;29247;50.944;5.382;2022-11-11T05:22:34;9.60;83.60
43651;DHT22;29247;50.944;5.382;2022-11-11T05:25:00;9.60;83.40
43651;DHT22;29247;50.944;5.382;2022-11-11T05:27:56;9.60;83.50
43651;DHT22;29247;50.944;5.382;2022-11-11T05:30:24;9.60;83.70
43651;DHT22;29247;50.944;5.382;2022-11-11T05:32:50;9.60;83.80
43651;DHT22;29247;50.944;5.382;2022-11-11T05:35:16;9.60;83.90
43651;DHT22;29247;50.944;5.382;2022-11-11T05:37:44;9.60;84.00
43651;DHT22;29247;50.944;5.382;2022-11-11T05:40:30;9.70;84.00
43651;DHT22;29247;50.944;5.382;2022-11-11T05:42:56;9.70;83.90
43651;DHT22;29247;50.944;5.382;2022-11-11T05:45:24;9.70;83.80
43651;DHT22;29247;50.944;5.382;2022-11-11T05:47:53;9.60;83.80
43651;DHT22;29247;50.944;5.382;2022-11-11T05:50:19;9.60;84.00
43651;DHT22;29247;50.944;5.382;2022-11-11T05:52:48;9.60;83.90
43651;DHT22;29247;50.944;5.382;2022-11-11T05:55:14;9.60;83.70
43651;DHT22;29247;50.944;5.382;2022-11-11T05:57:42;9.60;83.70
43651;DHT22;29247;50.944;5.382;2022-11-11T06:00:09;9.60;83.70
43651;DHT22;29247;50.944;5.382;2022-11-11T06:02:37;9.60;83.70
43651;DHT22;29247;50.944;5.382;2022-11-11T06:05:06;9.60;83.70
43651;DHT22;29247;50.944;5.382;2022-11-11T06:07:36;9.50;83.70
43651;DHT22;29247;50.944;5.382;2022-11-11T06:10:04;9.50;83.70
43651;DHT22;29247;50.944;5.382;2022-11-11T06:12:48;9.50;83.80
43651;DHT22;29247;50.944;5.382;2022-11-11T06:15:38;9.50;83.80
43651;DHT22;29247;50.944;5.382;2022-11-11T06:18:07;9.50;83.80
43651;DHT22;29247;50.944;5.382;2022-11-11T06:20:33;9.50;83.80
43651;DHT22;29247;50.944;5.382;2022-11-11T06:23:00;9.40;83.80
43651;DHT22;29247;50.944;5.382;2022-11-11T06:25:29;9.50;84.00
43651;DHT22;29247;50.944;5.382;2022-11-11T06:28:14;9.40;83.80
43651;DHT22;29247;50.944;5.382;2022-11-11T06:30:43;9.40;83.70
43651;DHT22;29247;50.944;5.382;2022-11-11T06:33:12;9.40;83.70
43651;DHT22;29247;50.944;5.382;2022-11-11T06:35:43;9.40;83.90
43651;DHT22;29247;50.944;5.382;2022-11-11T06:38:09;9.40;83.80
43651;DHT22;29247;50.944;5.382;2022-11-11T06:40:35;9.30;83.40
43651;DHT22;29247;50.944;5.382;2022-11-11T06:43:01;9.30;83.20
43651;DHT22;29247;50.944;5.382;2022-11-11T06:45:32;9.30;83.40
43651;DHT22;29247;50.944;5.382;2022-11-11T06:48:03;9.20;83.60
43651;DHT22;29247;50.944;5.382;2022-11-11T06:50:31;9.30;83.90
43651;DHT22;29247;50.944;5.382;2022-11-11T06:53:03;9.30;83.90
43651;DHT22;29247;50.944;5.382;2022-11-11T06:55:32;9.30;84.00
43651;DHT22;29247;50.944;5.382;2022-11-11T06:58:07;9.30;84.00
43651;DHT22;29247;50.944;5.382;2022-11-11T07:00:34;9.20;84.00
43651;DHT22;29247;50.944;5.382;2022-11-11T07:03:06;9.30;84.00
43651;DHT22;29247;50.944;5.382;2022-11-11T07:05:32;9.30;84.00
43651;DHT22;29247;50.944;5.382;2022-11-11T07:08:02;9.20;83.70
43651;DHT22;29247;50.944;5.382;2022-11-11T07:10:36;9.20;83.70
43651;DHT22;29247;50.944;5.382;2022-11-11T07:13:06;9.20;83.90
43651;DHT22;29247;50.944;5.382;2022-11-11T07:15:32;9.20;83.50
43651;DHT22;29247;50.944;5.382;2022-11-11T07:17:57;9.20;83.90
43651;DHT22;29247;50.944;5.382;2022-11-11T07:20:23;9.20;84.00
43651;DHT22;29247;50.944;5.382;2022-11-11T07:22:49;9.20;84.10
43651;DHT22;29247;50.944;5.382;2022-11-11T07:25:15;9.20;84.10
43651;DHT22;29247;50.944;5.382;2022-11-11T07:27:41;9.20;84.10
43651;DHT22;29247;50.944;5.382;2022-11-11T07:30:08;9.20;84.20
43651;DHT22;29247;50.944;5.382;2022-11-11T07:32:43;9.20;84.30
43651;DHT22;29247;50.944;5.382;2022-11-11T07:35:10;9.20;84.40
43651;DHT22;29247;50.944;5.382;2022-11-11T07:37:36;9.20;84.50
43651;DHT22;29247;50.944;5.382;2022-11-11T07:40:08;9.20;84.70
43651;DHT22;29247;50.944;5.382;2022-11-11T07:42:38;9.20;84.90
43651;DHT22;29247;50.944;5.382;2022-11-11T07:45:05;9.20;85.00
43651;DHT22;29247;50.944;5.382;2022-11-11T07:47:36;9.30;85.10
43651;DHT22;29247;50.944;5.382;2022-11-11T07:50:04;9.30;85.10
43651;DHT22;29247;50.944;5.382;2022-11-11T07:52:32;9.30;85.20
43651;DHT22;29247;50.944;5.382;2022-11-11T07:54:58;9.40;85.20
43651;DHT22;29247;50.944;5.382;2022-11-11T07:57:24;9.40;85.20
43651;DHT22;29247;50.944;5.382;2022-11-11T07:59:50;9.40;85.30
43651;DHT22;29247;50.944;5.382;2022-11-11T08:02:15;9.40;85.30
43651;DHT22;29247;50.944;5.382;2022-11-11T08:04:44;9.50;85.40
43651;DHT22;29247;50.944;5.382;2022-11-11T08:07:10;9.50;85.50
43651;DHT22;29247;50.944;5.382;2022-11-11T08:09:35;9.50;85.60
43651;DHT22;29247;50.944;5.382;2022-11-11T08:12:02;9.60;85.70
43651;DHT22;29247;50.944;5.382;2022-11-11T08:14:46;9.60;85.80
43651;DHT22;29247;50.944;5.382;2022-11-11T08:17:13;9.70;85.90
43651;DHT22;29247;50.944;5.382;2022-11-11T08:19:42;9.70;86.10
43651;DHT22;29247;50.944;5.382;2022-11-11T08:22:07;9.80;86.30
43651;DHT22;29247;50.944;5.382;2022-11-11T08:24:35;9.90;86.40
43651;DHT22;29247;50.944;5.382;2022-11-11T08:27:01;9.90;86.50
43651;DHT22;29247;50.944;5.382;2022-11-11T08:29:29;10.00;86.70
43651;DHT22;29247;50.944;5.382;2022-11-11T08:31:55;10.10;86.70
43651;DHT22;29247;50.944;5.382;2022-11-11T08:34:24;10.10;86.70
43651;DHT22;29247;50.944;5.382;2022-11-11T08:36:52;10.10;86.80
43651;DHT22;29247;50.944;5.382;2022-11-11T08:39:17;10.20;86.90
43651;DHT22;29247;50.944;5.382;2022-11-11T08:41:43;10.30;86.90
43651;DHT22;29247;50.944;5.382;2022-11-11T08:44:11;10.40;87.00
43651;DHT22;29247;50.944;5.382;2022-11-11T08:46:37;10.40;87.00
43651;DHT22;29247;50.944;5.382;2022-11-11T08:49:02;10.50;87.10
43651;DHT22;29247;50.944;5.382;2022-11-11T08:51:28;10.50;87.10
43651;DHT22;29247;50.944;5.382;2022-11-11T08:53:56;10.60;87.10
43651;DHT22;29247;50.944;5.382;2022-11-11T08:56:26;10.60;87.00
43651;DHT22;29247;50.944;5.382;2022-11-11T08:58:52;10.70;87.00
43651;DHT22;29247;50.944;5.382;2022-11-11T09:01:18;10.70;86.90
43651;DHT22;29247;50.944;5.382;2022-11-11T09:03:44;10.80;86.80
43651;DHT22;29247;50.944;5.382;2022-11-11T09:06:13;10.80;86.70
43651;DHT22;29247;50.944;5.382;2022-11-11T09:08:41;10.90;86.80
43651;DHT22;29247;50.944;5.382;2022-11-11T09:11:09;11.00;86.70
43651;DHT22;29247;50.944;5.382;2022-11-11T09:13:38;11.00;86.60
43651;DHT22;29247;50.944;5.382;2022-11-11T09:16:07;11.00;86.60
43651;DHT22;29247;50.944;5.382;2022-11-11T09:18:33;11.10;86.50
43651;DHT22;29247;50.944;5.382;2022-11-11T09:21:02;11.20;86.50
43651;DHT22;29247;50.944;5.382;2022-11-11T09:23:28;11.20;86.40
43651;DHT22;29247;50.944;5.382;2022-11-11T09:25:54;11.30;86.50
43651;DHT22;29247;50.944;5.382;2022-11-11T09:28:22;11.30;86.30
43651;DHT22;29247;50.944;5.382;2022-11-11T09:30:50;11.40;86.30
43651;DHT22;29247;50.944;5.382;2022-11-11T09:33:18;11.40;86.20
43651;DHT22;29247;50.944;5.382;2022-11-11T09:35:44;11.50;86.10
43651;DHT22;29247;50.944;5.382;2022-11-11T09:38:10;11.50;86.00
43651;DHT22;29247;50.944;5.382;2022-11-11T09:40:51;11.60;85.90
43651;DHT22;29247;50.944;5.382;2022-11-11T09:43:58;11.60;85.80
43651;DHT22;29247;50.944;5.382;2022-11-11T09:46:44;11.70;85.70
43651;DHT22;29247;50.944;5.382;2022-11-11T09:49:41;11.80;85.50
43651;DHT22;29247;50.944;5.382;2022-11-11T09:52:19;11.90;85.40
43651;DHT22;29247;50.944;5.382;2022-11-11T09:54:53;12.00;85.20
43651;DHT22;29247;50.944;5.382;2022-11-11T09:57:43;12.00;85.10
43651;DHT22;29247;50.944;5.382;2022-11-11T10:03:00;12.20;84.70
43651;DHT22;29247;50.944;5.382;2022-11-11T10:05:38;12.20;84.60
43651;DHT22;29247;50.944;5.382;2022-11-11T10:08:16;12.30;84.40
43651;DHT22;29247;50.944;5.382;2022-11-11T10:10:49;12.30;84.20
43651;DHT22;29247;50.944;5.382;2022-11-11T10:13:40;12.40;83.90
43651;DHT22;29247;50.944;5.382;2022-11-11T10:21:18;12.60;83.10
43651;DHT22;29247;50.944;5.382;2022-11-11T10:23:50;12.60;82.90
43651;DHT22;29247;50.944;5.382;2022-11-11T10:26:28;12.70;82.50
43651;DHT22;29247;50.944;5.382;2022-11-11T10:29:08;12.70;82.30
43651;DHT22;29247;50.944;5.382;2022-11-11T10:31:38;12.70;81.90
43651;DHT22;29247;50.944;5.382;2022-11-11T10:34:10;12.80;81.90
43651;DHT22;29247;50.944;5.382;2022-11-11T10:36:50;12.90;81.80
43651;DHT22;29247;50.944;5.382;2022-11-11T10:39:27;12.90;81.50
43651;DHT22;29247;50.944;5.382;2022-11-11T10:41:55;13.00;81.10
43651;DHT22;29247;50.944;5.382;2022-11-11T10:44:25;13.00;80.80
43651;DHT22;29247;50.944;5.382;2022-11-11T10:47:36;13.10;80.50
43651;DHT22;29247;50.944;5.382;2022-11-11T10:50:14;13.10;80.30
43651;DHT22;29247;50.944;5.382;2022-11-11T10:52:46;13.20;80.00
43651;DHT22;29247;50.944;5.382;2022-11-11T10:55:24;13.20;80.00
43651;DHT22;29247;50.944;5.382;2022-11-11T10:57:58;13.30;79.80
43651;DHT22;29247;50.944;5.382;2022-11-11T11:00:27;13.40;79.60
43651;DHT22;29247;50.944;5.382;2022-11-11T11:06:15;13.50;79.40
43651;DHT22;29247;50.944;5.382;2022-11-11T11:08:29;13.60;79.30
43651;DHT22;29247;50.944;5.382;2022-11-11T11:11:00;13.70;79.00
43651;DHT22;29247;50.944;5.382;2022-11-11T11:16:21;13.80;78.60
43651;DHT22;29247;50.944;5.382;2022-11-11T11:21:49;13.90;78.10
43651;DHT22;29247;50.944;5.382;2022-11-11T11:24:25;13.90;77.80
43651;DHT22;29247;50.944;5.382;2022-11-11T11:26:56;14.00;77.60
43651;DHT22;29247;50.944;5.382;2022-11-11T11:29:36;14.00;77.20
43651;DHT22;29247;50.944;5.382;2022-11-11T11:32:16;14.00;77.10
43651;DHT22;29247;50.944;5.382;2022-11-11T11:34:50;14.10;77.00
43651;DHT22;29247;50.944;5.382;2022-11-11T11:37:17;14.10;76.70
43651;DHT22;29247;50.944;5.382;2022-11-11T11:39:46;14.10;76.70
43651;DHT22;29247;50.944;5.382;2022-11-11T11:42:48;14.10;76.60
43651;DHT22;29247;50.944;5.382;2022-11-11T11:45:27;14.20;76.50
43651;DHT22;29247;50.944;5.382;2022-11-11T11:56:14;14.30;76.00
43651;DHT22;29247;50.944;5.382;2022-11-11T11:59:08;14.40;75.80
43651;DHT22;29247;50.944;5.382;2022-11-11T12:06:54;14.50;75.40
43651;DHT22;29247;50.944;5.382;2022-11-11T12:12:15;14.60;75.20
43651;DHT22;29247;50.944;5.382;2022-11-11T12:14:54;14.60;74.90
43651;DHT22;29247;50.944;5.382;2022-11-11T12:17:49;14.60;74.80
43651;DHT22;29247;50.944;5.382;2022-11-11T12:23:03;14.70;74.60
43651;DHT22;29247;50.944;5.382;2022-11-11T12:28:24;14.80;74.60
43651;DHT22;29247;50.944;5.382;2022-11-11T12:31:09;14.80;74.50
43651;DHT22;29247;50.944;5.382;2022-11-11T12:39:04;14.90;74.70
43651;DHT22;29247;50.944;5.382;2022-11-11T12:44:10;14.90;74.60
43651;DHT22;29247;50.944;5.382;2022-11-11T13:00:21;15.10;74.40
43651;DHT22;29247;50.944;5.382;2022-11-11T13:03:06;15.20;75.20
43651;DHT22;29247;50.944;5.382;2022-11-11T13:06:02;15.20;74.30
43651;DHT22;29247;50.944;5.382;2022-11-11T13:16:47;15.30;75.00
43651;DHT22;29247;50.944;5.382;2022-11-11T13:19:22;15.40;74.40
43651;DHT22;29247;50.944;5.382;2022-11-11T13:21:51;15.40;74.50
43651;DHT22;29247;50.944;5.382;2022-11-11T13:24:20;15.40;74.50
43651;DHT22;29247;50.944;5.382;2022-11-11T13:26:51;15.50;74.60
43651;DHT22;29247;50.944;5.382;2022-11-11T13:32:18;15.50;74.30
43651;DHT22;29247;50.944;5.382;2022-11-11T13:34:49;15.50;74.00
43651;DHT22;29247;50.944;5.382;2022-11-11T13:37:22;15.60;73.80
43651;DHT22;29247;50.944;5.382;2022-11-11T13:39:50;15.60;73.70
43651;DHT22;29247;50.944;5.382;2022-11-11T13:42:22;15.60;73.50
43651;DHT22;29247;50.944;5.382;2022-11-11T13:44:55;15.60;73.30
43651;DHT22;29247;50.944;5.382;2022-11-11T13:47:33;15.60;73.30
43651;DHT22;29247;50.944;5.382;2022-11-11T13:50:25;15.60;73.20
43651;DHT22;29247;50.944;5.382;2022-11-11T13:53:04;15.60;73.10
43651;DHT22;29247;50.944;5.382;2022-11-11T13:55:37;15.60;72.90
43651;DHT22;29247;50.944;5.382;2022-11-11T13:58:16;15.60;72.90
43651;DHT22;29247;50.944;5.382;2022-11-11T14:00:45;15.60;72.70
43651;DHT22;29247;50.944;5.382;2022-11-11T14:05:43;15.50;72.50
43651;DHT22;29247;50.944;5.382;2022-11-11T14:08:09;15.50;72.40
43651;DHT22;29247;50.944;5.382;2022-11-11T14:15:49;15.50;72.50
43651;DHT22;29247;50.944;5.382;2022-11-11T14:20:57;15.50;72.50
43651;DHT22;29247;50.944;5.382;2022-11-11T14:33:47;15.40;73.40
43651;DHT22;29247;50.944;5.382;2022-11-11T14:36:28;15.40;73.70
43651;DHT22;29247;50.944;5.382;2022-11-11T14:39:22;15.30;73.80
43651;DHT22;29247;50.944;5.382;2022-11-11T14:41:53;15.30;74.10
43651;DHT22;29247;50.944;5.382;2022-11-11T14:57:39;15.10;75.00
43651;DHT22;29247;50.944;5.382;2022-11-11T15:00:17;15.00;75.10
43651;DHT22;29247;50.944;5.382;2022-11-11T15:03:09;15.00;75.30
43651;DHT22;29247;50.944;5.382;2022-11-11T15:08:27;14.90;75.60
43651;DHT22;29247;50.944;5.382;2022-11-11T15:19:44;14.80;76.20
43651;DHT22;29247;50.944;5.382;2022-11-11T15:30:48;14.50;77.00
43651;DHT22;29247;50.944;5.382;2022-11-11T15:33:35;14.50;77.10
43651;DHT22;29247;50.944;5.382;2022-11-11T15:38:58;14.40;77.30
43651;DHT22;29247;50.944;5.382;2022-11-11T15:41:33;14.30;77.30
43651;DHT22;29247;50.944;5.382;2022-11-11T15:44:16;14.30;77.40
43651;DHT22;29247;50.944;5.382;2022-11-11T15:46:47;14.20;77.50
43651;DHT22;29247;50.944;5.382;2022-11-11T15:51:58;14.10;77.60
43651;DHT22;29247;50.944;5.382;2022-11-11T15:54:26;14.00;77.60
43651;DHT22;29247;50.944;5.382;2022-11-11T15:56:52;14.00;77.70
43651;DHT22;29247;50.944;5.382;2022-11-11T15:59:29;13.80;77.70
43651;DHT22;29247;50.944;5.382;2022-11-11T16:02:08;13.90;77.80
43651;DHT22;29247;50.944;5.382;2022-11-11T16:04:54;13.80;77.70
43651;DHT22;29247;50.944;5.382;2022-11-11T16:07:23;13.80;77.80
43651;DHT22;29247;50.944;5.382;2022-11-11T16:09:49;13.70;77.80
43651;DHT22;29247;50.944;5.382;2022-11-11T16:12:30;13.70;78.00
43651;DHT22;29247;50.944;5.382;2022-11-11T16:15:02;13.60;78.20
43651;DHT22;29247;50.944;5.382;2022-11-11T16:17:37;13.60;78.20
43651;DHT22;29247;50.944;5.382;2022-11-11T16:20:13;13.50;78.10
43651;DHT22;29247;50.944;5.382;2022-11-11T16:22:45;13.40;78.00
43651;DHT22;29247;50.944;5.382;2022-11-11T16:25:18;13.40;78.20
43651;DHT22;29247;50.944;5.382;2022-11-11T16:27:47;13.30;78.30
43651;DHT22;29247;50.944;5.382;2022-11-11T16:32:55;13.20;78.50
43651;DHT22;29247;50.944;5.382;2022-11-11T16:35:35;13.10;78.30
43651;DHT22;29247;50.944;5.382;2022-11-11T16:38:07;13.00;78.40
43651;DHT22;29247;50.944;5.382;2022-11-11T16:40:41;13.00;78.40
43651;DHT22;29247;50.944;5.382;2022-11-11T16:43:27;12.90;78.50
43651;DHT22;29247;50.944;5.382;2022-11-11T16:51:06;12.80;79.10
43651;DHT22;29247;50.944;5.382;2022-11-11T16:53:37;12.70;79.00
43651;DHT22;29247;50.944;5.382;2022-11-11T16:56:04;12.70;79.00
43651;DHT22;29247;50.944;5.382;2022-11-11T16:58:37;12.60;79.10
43651;DHT22;29247;50.944;5.382;2022-11-11T17:01:06;12.50;79.10
43651;DHT22;29247;50.944;5.382;2022-11-11T17:03:32;12.50;79.40
43651;DHT22;29247;50.944;5.382;2022-11-11T17:06:06;12.50;79.60
43651;DHT22;29247;50.944;5.382;2022-11-11T17:08:40;12.40;79.80
43651;DHT22;29247;50.944;5.382;2022-11-11T17:13:57;12.40;79.80
43651;DHT22;29247;50.944;5.382;2022-11-11T17:16:22;12.30;79.70
43651;DHT22;29247;50.944;5.382;2022-11-11T17:18:48;12.30;79.70
43651;DHT22;29247;50.944;5.382;2022-11-11T17:21:14;12.20;79.60
43651;DHT22;29247;50.944;5.382;2022-11-11T17:23:42;12.10;79.70
43651;DHT22;29247;50.944;5.382;2022-11-11T17:26:10;12.10;79.80
43651;DHT22;29247;50.944;5.382;2022-11-11T17:28:36;12.00;79.90
43651;DHT22;29247;50.944;5.382;2022-11-11T17:31:09;12.00;80.10
43651;DHT22;29247;50.944;5.382;2022-11-11T17:33:38;12.00;80.40
43651;DHT22;29247;50.944;5.382;2022-11-11T17:36:07;12.00;80.40
43651;DHT22;29247;50.944;5.382;2022-11-11T17:38:37;11.90;80.30
43651;DHT22;29247;50.944;5.382;2022-11-11T17:41:13;11.90;80.50
43651;DHT22;29247;50.944;5.382;2022-11-11T17:43:38;11.90;80.70
43651;DHT22;29247;50.944;5.382;2022-11-11T17:46:04;11.90;80.40
43651;DHT22;29247;50.944;5.382;2022-11-11T17:48:33;11.80;80.10
43651;DHT22;29247;50.944;5.382;2022-11-11T17:51:02;11.80;80.20
43651;DHT22;29247;50.944;5.382;2022-11-11T17:53:34;11.70;80.20
43651;DHT22;29247;50.944;5.382;2022-11-11T17:56:04;11.70;80.30
43651;DHT22;29247;50.944;5.382;2022-11-11T17:58:36;11.70;80.30
43651;DHT22;29247;50.944;5.382;2022-11-11T18:01:10;11.60;80.40
43651;DHT22;29247;50.944;5.382;2022-11-11T18:03:37;11.60;80.70
43651;DHT22;29247;50.944;5.382;2022-11-11T18:06:05;11.60;80.80
43651;DHT22;29247;50.944;5.382;2022-11-11T18:08:31;11.60;80.80
43651;DHT22;29247;50.944;5.382;2022-11-11T18:11:01;11.50;80.50
43651;DHT22;29247;50.944;5.382;2022-11-11T18:13:29;11.50;80.40
43651;DHT22;29247;50.944;5.382;2022-11-11T18:15:57;11.50;80.50
43651;DHT22;29247;50.944;5.382;2022-11-11T18:18:28;11.40;80.60
43651;DHT22;29247;50.944;5.382;2022-11-11T18:21:05;11.40;80.60
43651;DHT22;29247;50.944;5.382;2022-11-11T18:23:38;11.30;80.60
43651;DHT22;29247;50.944;5.382;2022-11-11T18:26:07;11.30;80.60
43651;DHT22;29247;50.944;5.382;2022-11-11T18:28:35;11.30;80.40
43651;DHT22;29247;50.944;5.382;2022-11-11T18:31:06;11.20;80.30
43651;DHT22;29247;50.944;5.382;2022-11-11T18:33:37;11.10;80.30
43651;DHT22;29247;50.944;5.382;2022-11-11T18:36:11;11.10;80.50
43651;DHT22;29247;50.944;5.382;2022-11-11T18:38:37;11.10;80.60
43651;DHT22;29247;50.944;5.382;2022-11-11T18:41:11;11.10;80.90
43651;DHT22;29247;50.944;5.382;2022-11-11T18:43:41;11.00;80.60
43651;DHT22;29247;50.944;5.382;2022-11-11T18:46:17;11.00;80.30
43651;DHT22;29247;50.944;5.382;2022-11-11T18:48:55;10.90;80.40
43651;DHT22;29247;50.944;5.382;2022-11-11T18:51:22;10.80;80.60
43651;DHT22;29247;50.944;5.382;2022-11-11T18:53:48;10.80;81.00
43651;DHT22;29247;50.944;5.382;2022-11-11T18:56:19;10.80;81.30
43651;DHT22;29247;50.944;5.382;2022-11-11T18:58:53;10.80;81.40